Time;durP1;ratioP1;P1;durP2;ratioP2;P2;SDS_P1;SDS_P2;PMS_P1;PMS_P2;Temp;Humidity;BMP_temperature;BMP_pressure;BME280_temperature;BME280_humidity;BME280_pressure;Samples;Min_cycle;Max_cycle;Signal;HPM_P1;HPM_P2
2022/08/08 00:02:09;;;;;;;1.98;1.13;;;20.00;53.60;;;;;;4823366;29;20178;-76
2022/08/08 00:04:47;;;;;;;3.63;1.43;;;20.00;53.50;;;;;;4821330;29;20069;-76
2022/08/08 00:07:27;;;;;;;2.03;1.27;;;20.00;53.50;;;;;;4820316;29;20133;-76
2022/08/08 00:10:14;;;;;;;2.90;1.25;;;20.00;53.50;;;;;;4815873;29;20466;-76
2022/08/08 00:13:12;;;;;;;3.13;1.30;;;19.90;53.30;;;;;;4814279;29;20054;-76
2022/08/08 00:15:45;;;;;;;4.35;1.33;;;19.90;53.30;;;;;;4815408;29;20532;-76
2022/08/08 00:18:21;;;;;;;2.67;1.30;;;19.90;53.20;;;;;;4816960;29;20256;-75
2022/08/08 00:21:00;;;;;;;1.80;1.20;;;19.90;53.20;;;;;;4798673;29;20106;-76
2022/08/08 00:23:53;;;;;;;4.68;1.88;;;19.90;53.20;;;;;;4813926;29;20045;-76
2022/08/08 00:26:40;;;;;;;3.78;1.45;;;19.80;53.00;;;;;;4799220;29;20407;-76
2022/08/08 00:29:21;;;;;;;4.18;1.48;;;19.80;53.00;;;;;;4814865;29;20026;-76
2022/08/08 00:31:51;;;;;;;3.35;1.50;;;19.80;53.00;;;;;;4797455;29;20030;-75
2022/08/08 00:37:25;;;;;;;2.67;1.67;;;19.80;53.00;;;;;;4814902;29;20132;-75
2022/08/08 00:40:23;;;;;;;2.85;1.20;;;19.70;52.70;;;;;;4814950;29;20066;-75
2022/08/08 00:43:28;;;;;;;1.77;1.30;;;19.70;52.80;;;;;;4798236;29;20026;-76
2022/08/08 00:46:11;;;;;;;1.45;1.20;;;19.70;52.70;;;;;;4798906;29;20053;-75
2022/08/08 00:48:43;;;;;;;2.58;1.25;;;19.70;52.60;;;;;;4796868;29;20114;-75
2022/08/08 00:51:12;;;;;;;1.85;1.13;;;19.70;52.60;;;;;;4813700;29;20142;-75
2022/08/08 00:53:59;;;;;;;1.58;0.95;;;19.70;52.60;;;;;;4814488;29;20137;-75
2022/08/08 00:56:59;;;;;;;1.98;1.23;;;19.60;52.60;;;;;;4813735;29;20057;-76
2022/08/08 00:59:47;;;;;;;2.13;1.20;;;19.60;52.50;;;;;;4797820;29;20033;-75
2022/08/08 01:02:37;;;;;;;2.25;1.15;;;19.60;52.40;;;;;;4810468;29;20425;-75
2022/08/08 01:05:15;;;;;;;1.55;1.02;;;19.60;52.50;;;;;;4796361;29;20042;-76
2022/08/08 01:07:56;;;;;;;4.85;1.92;;;19.50;52.30;;;;;;4813135;29;20549;-75
2022/08/08 01:10:43;;;;;;;2.35;1.15;;;19.50;52.40;;;;;;4815487;29;20505;-76
2022/08/08 01:13:38;;;;;;;2.75;1.20;;;19.40;52.20;;;;;;4812810;29;20753;-74
2022/08/08 01:16:27;;;;;;;2.15;1.10;;;19.40;52.30;;;;;;4813700;29;20302;-74
2022/08/08 01:19:14;;;;;;;1.48;1.33;;;19.30;52.10;;;;;;4812276;29;20102;-73
2022/08/08 01:21:51;;;;;;;2.00;1.35;;;19.30;52.20;;;;;;4813958;29;20038;-76
2022/08/08 01:24:34;;;;;;;2.20;1.00;;;19.30;52.30;;;;;;4798856;29;20149;-73
2022/08/08 01:27:38;;;;;;;1.80;1.30;;;19.30;52.40;;;;;;4812183;29;20045;-73
2022/08/08 01:30:34;;;;;;;2.60;1.35;;;19.20;52.30;;;;;;4812906;29;20034;-76
2022/08/08 01:33:20;;;;;;;1.50;1.40;;;19.10;52.10;;;;;;4797233;29;20034;-74
2022/08/08 01:36:10;;;;;;;2.80;1.48;;;19.00;52.00;;;;;;4814770;29;20057;-75
2022/08/08 01:39:03;;;;;;;1.75;1.25;;;19.00;52.10;;;;;;4808670;29;20051;-75
2022/08/08 01:41:30;;;;;;;2.55;1.58;;;19.00;52.20;;;;;;4813033;29;20436;-75
2022/08/08 01:44:31;;;;;;;2.20;1.17;;;18.90;52.00;;;;;;4797851;29;20580;-75
2022/08/08 01:47:06;;;;;;;0.98;0.90;;;18.90;52.20;;;;;;4797287;29;20082;-75
2022/08/08 01:49:59;;;;;;;2.53;1.27;;;18.80;52.00;;;;;;4800003;29;20450;-75
2022/08/08 01:52:49;;;;;;;2.35;1.05;;;18.80;52.20;;;;;;4814437;29;20394;-75
2022/08/08 01:55:57;;;;;;;1.83;1.45;;;18.80;52.20;;;;;;4799120;29;20425;-75
2022/08/08 01:58:29;;;;;;;1.95;1.08;;;18.70;52.10;;;;;;4783700;29;20066;-75
2022/08/08 02:01:18;;;;;;;1.88;1.00;;;18.70;52.10;;;;;;4814943;29;20153;-75
2022/08/08 02:03:57;;;;;;;1.45;1.05;;;18.70;52.20;;;;;;4812422;29;20357;-75
2022/08/08 02:06:45;;;;;;;1.73;1.10;;;18.70;52.10;;;;;;4815055;29;20045;-75
2022/08/08 02:09:43;;;;;;;1.77;1.02;;;18.60;52.20;;;;;;4810459;29;20087;-75
2022/08/08 02:12:24;;;;;;;1.38;1.10;;;18.50;52.00;;;;;;4798206;29;20544;-75
2022/08/08 02:15:15;;;;;;;2.10;1.20;;;18.50;52.10;;;;;;4814282;29;20030;-75
2022/08/08 02:18:08;;;;;;;1.77;1.10;;;18.50;52.20;;;;;;4797161;29;20397;-75
2022/08/08 02:23:48;;;;;;;3.70;1.20;;;18.30;52.00;;;;;;4816118;29;20437;-74
2022/08/08 02:26:27;;;;;;;1.63;0.95;;;18.30;52.00;;;;;;4815450;29;20125;-75
2022/08/08 02:28:58;;;;;;;2.05;1.17;;;18.30;52.10;;;;;;4797223;29;20034;-74
2022/08/08 02:31:51;;;;;;;2.40;1.52;;;18.30;52.20;;;;;;4799982;29;20056;-74
2022/08/08 02:34:41;;;;;;;3.33;1.65;;;18.20;52.10;;;;;;4804657;29;20122;-74
2022/08/08 02:37:19;;;;;;;4.28;1.20;;;18.20;52.30;;;;;;4815461;29;20454;-74
2022/08/08 02:40:13;;;;;;;3.25;1.10;;;18.20;52.30;;;;;;4799939;29;20470;-74
2022/08/08 02:42:59;;;;;;;2.95;1.40;;;18.20;52.40;;;;;;4814744;29;20037;-74
2022/08/08 02:46:02;;;;;;;1.60;1.30;;;18.10;52.20;;;;;;4815527;29;20086;-74
2022/08/08 02:49:06;;;;;;;2.17;1.10;;;18.00;52.20;;;;;;4815200;29;20030;-74
2022/08/08 02:52:00;;;;;;;2.50;1.17;;;18.00;52.30;;;;;;4816040;29;20043;-75
2022/08/08 02:54:37;;;;;;;1.83;1.17;;;18.00;52.30;;;;;;4800935;29;20089;-74
2022/08/08 02:57:40;;;;;;;1.87;0.97;;;18.00;52.30;;;;;;4786515;29;20031;-74
2022/08/08 03:00:12;;;;;;;;;;;18.00;52.50;;;;;;4816155;29;20422;-74
2022/08/08 03:03:13;;;;;;;1.90;1.05;;;17.90;52.10;;;;;;4800128;29;20624;-75
2022/08/08 03:06:01;;;;;;;3.33;0.90;;;17.90;52.20;;;;;;4801118;29;20053;-75
2022/08/08 03:09:01;;;;;;;2.40;1.52;;;17.80;52.00;;;;;;4815406;29;20077;-74
2022/08/08 03:12:05;;;;;;;2.47;1.00;;;17.80;52.30;;;;;;4813431;29;20370;-74
2022/08/08 03:14:55;;;;;;;2.38;1.10;;;17.80;52.40;;;;;;4817979;29;20030;-74
2022/08/08 03:17:27;;;;;;;3.92;1.35;;;17.80;52.50;;;;;;4816030;29;20042;-75
2022/08/08 03:20:20;;;;;;;2.40;1.67;;;17.70;52.40;;;;;;4801931;29;20401;-74
2022/08/08 03:22:49;;;;;;;3.72;1.85;;;17.70;52.50;;;;;;4815921;29;20034;-75
2022/08/08 03:25:18;;;;;;;1.98;1.30;;;17.70;52.50;;;;;;4801517;29;20034;-75
2022/08/08 03:27:52;;;;;;;2.42;1.65;;;17.70;52.70;;;;;;4785634;29;20042;-74
2022/08/08 03:30:19;;;;;;;1.98;1.60;;;17.60;52.70;;;;;;4786899;29;20038;-75
2022/08/08 03:35:38;;;;;;;2.58;1.42;;;17.60;52.90;;;;;;4801296;29;20800;-75
2022/08/08 03:38:06;;;;;;;2.42;1.63;;;17.60;53.00;;;;;;4819145;29;20111;-75
2022/08/08 03:40:33;;;;;;;1.80;1.27;;;17.60;53.10;;;;;;4814891;29;20917;-75
2022/08/08 03:43:09;;;;;;;4.03;1.50;;;17.50;52.90;;;;;;4813235;29;20045;-75
2022/08/08 03:45:36;;;;;;;2.75;1.27;;;17.50;53.10;;;;;;4816762;29;20057;-74
2022/08/08 03:48:06;;;;;;;2.95;1.25;;;17.50;53.10;;;;;;4813999;29;20256;-74
2022/08/08 03:51:00;;;;;;;1.92;1.13;;;17.50;53.50;;;;;;4801574;29;20038;-74
2022/08/08 03:53:34;;;;;;;3.13;2.05;;;17.50;53.30;;;;;;4800330;29;20049;-75
2022/08/08 03:56:00;;;;;;;2.80;1.75;;;17.50;53.30;;;;;;4788023;29;20131;-74
2022/08/08 03:58:26;;;;;;;2.88;1.52;;;17.40;53.20;;;;;;4815702;29;20350;-74
2022/08/08 04:00:59;;;;;;;1.77;1.20;;;17.40;53.30;;;;;;4772190;29;20050;-73
2022/08/08 04:03:35;;;;;;;2.75;1.40;;;17.50;53.50;;;;;;4800202;29;20505;-74
2022/08/08 04:06:05;;;;;;;1.65;1.40;;;17.40;53.50;;;;;;4801349;29;20041;-74
2022/08/08 04:08:36;;;;;;;1.70;1.60;;;17.40;53.60;;;;;;4807639;29;20043;-74
2022/08/08 04:11:08;;;;;;;2.22;1.60;;;17.40;53.50;;;;;;4770397;29;20043;-76
2022/08/08 04:13:35;;;;;;;2.40;1.10;;;17.30;53.40;;;;;;4807232;29;20042;-74
2022/08/08 04:16:02;;;;;;;2.45;1.40;;;17.40;53.70;;;;;;4804452;29;20038;-74
2022/08/08 04:18:29;;;;;;;2.65;1.30;;;17.30;53.60;;;;;;4789991;29;20487;-74
2022/08/08 04:20:55;;;;;;;3.15;1.20;;;17.30;53.70;;;;;;4811274;29;20346;-75
2022/08/08 04:23:21;;;;;;;2.65;1.33;;;17.20;53.60;;;;;;4833160;29;20102;-74
2022/08/08 04:25:49;;;;;;;2.08;1.33;;;17.20;53.70;;;;;;4816856;29;20129;-74
2022/08/08 04:28:15;;;;;;;3.72;1.60;;;17.20;53.80;;;;;;4821987;29;20973;-74
2022/08/08 04:30:41;;;;;;;2.35;1.77;;;17.20;53.90;;;;;;4802493;29;20038;-74
2022/08/08 04:33:08;;;;;;;2.28;1.55;;;17.20;53.90;;;;;;4801319;29;20050;-76
2022/08/08 04:35:34;;;;;;;2.65;1.52;;;17.10;53.80;;;;;;4823193;29;20524;-77
2022/08/08 04:38:00;;;;;;;3.65;1.90;;;17.10;53.90;;;;;;4815729;29;20212;-76
2022/08/08 04:40:31;;;;;;;1.58;1.40;;;17.10;54.00;;;;;;4816213;29;20030;-74
2022/08/08 04:42:58;;;;;;;2.05;1.33;;;17.10;54.00;;;;;;4800835;29;20038;-76
2022/08/08 04:45:28;;;;;;;2.90;1.38;;;17.10;54.10;;;;;;4802975;29;20484;-76
2022/08/08 04:47:57;;;;;;;2.65;1.63;;;17.00;54.00;;;;;;4796445;29;20078;-76
2022/08/08 04:50:24;;;;;;;3.20;1.75;;;17.00;54.10;;;;;;4798592;29;20074;-76
2022/08/08 04:52:51;;;;;;;2.22;1.67;;;17.00;54.20;;;;;;4798650;29;20042;-76
2022/08/08 04:55:17;;;;;;;1.92;1.67;;;17.00;54.20;;;;;;4814521;29;20026;-75
2022/08/08 04:57:44;;;;;;;2.22;1.40;;;17.00;54.80;;;;;;4798197;29;20045;-75
2022/08/08 05:00:11;;;;;;;2.63;1.92;;;17.00;54.30;;;;;;4814468;29;20046;-74
2022/08/08 05:02:37;;;;;;;4.30;1.42;;;17.00;54.30;;;;;;4797862;29;20034;-75
2022/08/08 05:05:04;;;;;;;2.20;1.55;;;17.00;54.40;;;;;;4783454;29;20034;-75
2022/08/08 05:07:32;;;;;;;2.40;1.63;;;17.00;54.40;;;;;;4798782;29;20063;-76
2022/08/08 05:09:58;;;;;;;3.47;1.33;;;17.00;54.50;;;;;;4794837;29;20620;-76
2022/08/08 05:12:24;;;;;;;2.65;2.10;;;17.00;54.50;;;;;;4798600;29;20039;-76
2022/08/08 05:14:50;;;;;;;2.35;1.75;;;17.00;54.60;;;;;;4796210;29;20045;-76
2022/08/08 05:17:16;;;;;;;2.88;1.63;;;17.00;54.60;;;;;;4796932;29;20046;-76
2022/08/08 05:19:43;;;;;;;2.67;1.60;;;17.00;54.60;;;;;;4816339;29;20046;-76
2022/08/08 05:22:10;;;;;;;1.80;1.60;;;17.00;54.70;;;;;;4812735;29;20037;-75
2022/08/08 05:24:40;;;;;;;2.05;1.75;;;17.00;54.70;;;;;;4796217;29;20280;-77
2022/08/08 05:27:07;;;;;;;3.17;1.70;;;17.00;54.70;;;;;;4797039;29;20095;-77
2022/08/08 05:29:37;;;;;;;3.53;1.80;;;17.00;54.70;;;;;;4796593;29;20046;-76
2022/08/08 05:32:07;;;;;;;2.63;1.83;;;17.10;55.00;;;;;;4811951;29;20051;-77
2022/08/08 05:34:35;;;;;;;1.95;1.65;;;17.10;55.00;;;;;;4783956;29;20437;-77
2022/08/08 05:37:04;;;;;;;2.40;1.52;;;17.10;55.00;;;;;;4796279;29;20859;-77
2022/08/08 05:39:30;;;;;;;1.80;1.70;;;17.10;55.00;;;;;;4798512;29;20208;-78
2022/08/08 05:41:58;;;;;;;3.72;1.52;;;17.10;55.00;;;;;;4814498;29;20030;-78
2022/08/08 05:44:28;;;;;;;1.98;1.80;;;17.20;55.20;;;;;;4781277;29;20051;-78
2022/08/08 05:46:57;;;;;;;4.18;1.90;;;17.20;55.10;;;;;;4794753;29;20524;-77
2022/08/08 05:49:23;;;;;;;2.35;1.70;;;17.30;55.30;;;;;;4799878;29;20372;-77
2022/08/08 05:51:51;;;;;;;4.22;1.98;;;17.40;55.40;;;;;;4798704;29;20042;-76
2022/08/08 05:54:22;;;;;;;1.92;1.52;;;17.40;55.30;;;;;;4798773;29;20050;-78
2022/08/08 05:57:33;;;;;;;3.85;2.25;;;17.50;55.40;;;;;;4807074;29;20034;-79
2022/08/08 06:00:35;;;;;;;5.07;2.17;;;17.70;55.80;;;;;;4813411;29;20515;-76
2022/08/08 06:03:11;;;;;;;2.30;1.70;;;17.90;55.70;;;;;;4812253;29;20038;-75
2022/08/08 06:05:53;;;;;;;3.63;2.00;;;18.00;55.70;;;;;;4813715;29;20026;-76
2022/08/08 06:08:24;;;;;;;;;;;18.10;55.80;;;;;;4817257;29;20042;-75
2022/08/08 06:10:53;;;;;;;3.70;2.00;;;18.30;55.70;;;;;;4813740;29;19917;-78
2022/08/08 06:13:20;;;;;;;2.67;1.75;;;18.50;55.70;;;;;;4816959;29;20050;-78
2022/08/08 06:15:48;;;;;;;4.25;2.40;;;18.70;56.10;;;;;;4816943;29;20034;-77
2022/08/08 06:18:16;;;;;;;6.28;2.67;;;19.00;57.10;;;;;;4798725;29;20038;-77
2022/08/08 06:20:44;;;;;;;5.45;2.80;;;19.20;57.50;;;;;;4818900;29;20019;-76
2022/08/08 06:23:11;;;;;;;5.85;2.75;;;19.50;58.00;;;;;;4801943;29;20034;-77
2022/08/08 06:25:41;;;;;;;8.77;3.13;;;19.80;58.10;;;;;;4816986;29;20042;-77
2022/08/08 06:28:25;;;;;;;6.63;2.97;;;20.10;58.10;;;;;;4786168;29;20115;-76
2022/08/08 06:30:54;;;;;;;2.83;2.10;;;20.40;58.00;;;;;;4820333;29;20034;-76
2022/08/08 06:33:26;;;;;;;5.78;2.65;;;20.60;57.60;;;;;;4805255;29;20343;-76
2022/08/08 06:35:54;;;;;;;5.13;2.88;;;20.90;57.70;;;;;;4802513;29;20035;-81
2022/08/08 06:38:37;;;;;;;5.53;2.60;;;21.10;57.40;;;;;;4838731;29;20057;-80
2022/08/08 06:41:06;;;;;;;6.53;3.00;;;21.40;57.30;;;;;;4815563;29;20528;-78
2022/08/08 06:43:38;;;;;;;9.60;3.17;;;21.70;57.10;;;;;;4817205;29;20046;-79
2022/08/08 06:46:13;;;;;;;6.00;2.65;;;22.00;56.90;;;;;;4816759;29;20041;-80
2022/08/08 06:48:43;;;;;;;5.30;2.55;;;22.40;56.80;;;;;;4815818;29;20090;-79
2022/08/08 06:51:12;;;;;;;4.80;2.38;;;22.70;57.20;;;;;;4788152;29;20091;-81
2022/08/08 06:53:40;;;;;;;4.15;2.40;;;23.00;56.40;;;;;;4799153;29;20050;-78
2022/08/08 06:56:09;;;;;;;4.13;2.53;;;23.30;56.20;;;;;;4815623;29;20038;-77
2022/08/08 06:58:37;;;;;;;5.10;2.08;;;23.70;56.20;;;;;;4800811;29;20032;-78
2022/08/08 07:01:12;;;;;;;3.85;2.10;;;24.00;56.00;;;;;;4817501;29;20030;-76
2022/08/08 07:03:57;;;;;;;;;;;24.30;55.50;;;;;;4799353;29;20364;-76
2022/08/08 07:06:24;;;;;;;6.65;2.58;;;24.70;55.30;;;;;;4833568;29;20027;-74
2022/08/08 07:08:59;;;;;;;5.22;2.05;;;25.10;54.90;;;;;;4816091;29;20042;-75
2022/08/08 07:11:29;;;;;;;9.38;2.42;;;25.40;54.20;;;;;;4784724;29;20485;-75
2022/08/08 07:14:00;;;;;;;3.58;2.00;;;25.70;53.70;;;;;;4800260;29;20046;-75
2022/08/08 07:17:08;;;;;;;4.65;2.40;;;26.00;53.10;;;;;;4801120;29;20030;-76
2022/08/08 07:19:40;;;;;;;4.72;2.45;;;26.10;52.40;;;;;;4802674;29;20034;-76
2022/08/08 07:22:08;;;;;;;3.28;2.03;;;26.30;52.30;;;;;;4798672;29;20402;-75
2022/08/08 07:24:49;;;;;;;3.72;2.55;;;26.50;51.90;;;;;;4785688;29;20030;-75
2022/08/08 07:27:20;;;;;;;2.83;1.90;;;26.60;51.30;;;;;;4815043;29;20656;-74
2022/08/08 07:29:46;;;;;;;4.95;2.22;;;26.90;51.10;;;;;;4814635;29;20022;-75
2022/08/08 07:32:14;;;;;;;3.40;1.98;;;27.00;50.60;;;;;;4815952;29;20040;-76
2022/08/08 07:34:42;;;;;;;7.40;2.40;;;27.30;50.00;;;;;;4800642;29;20056;-75
2022/08/08 07:37:12;;;;;;;5.30;2.60;;;27.50;49.70;;;;;;4799317;29;20042;-75
2022/08/08 07:39:43;;;;;;;4.45;2.28;;;27.70;49.20;;;;;;4814463;29;20031;-76
2022/08/08 07:42:14;;;;;;;3.30;2.15;;;27.80;48.60;;;;;;4814285;29;20078;-75
2022/08/08 07:44:41;;;;;;;3.10;2.13;;;28.00;48.50;;;;;;4814710;29;20576;-75
2022/08/08 07:47:10;;;;;;;7.40;2.30;;;28.00;48.40;;;;;;4813882;29;20293;-75
2022/08/08 07:49:38;;;;;;;3.75;2.30;;;27.80;48.40;;;;;;4814763;29;20157;-75
2022/08/08 07:52:08;;;;;;;5.65;1.98;;;27.70;48.60;;;;;;4814635;29;20061;-75
2022/08/08 07:54:57;;;;;;;4.90;2.28;;;27.50;48.70;;;;;;4814614;29;20046;-75
2022/08/08 07:57:48;;;;;;;2.70;1.75;;;27.30;48.90;;;;;;4815429;29;20041;-75
2022/08/08 08:00:15;;;;;;;3.22;2.38;;;27.10;49.10;;;;;;4799374;29;20685;-75
2022/08/08 08:02:54;;;;;;;4.75;1.90;;;26.90;49.50;;;;;;4812149;29;20030;-75
2022/08/08 08:05:24;;;;;;;5.57;2.10;;;26.80;49.70;;;;;;4812485;29;20035;-75
2022/08/08 08:08:01;;;;;;;5.05;1.92;;;26.80;49.70;;;;;;4814048;29;20214;-74
2022/08/08 08:10:33;;;;;;;6.90;2.78;;;26.70;49.60;;;;;;4813895;29;20108;-75
2022/08/08 08:13:23;;;;;;;4.72;1.85;;;26.70;49.60;;;;;;4813607;29;20054;-76
2022/08/08 08:16:12;;;;;;;3.38;2.20;;;26.70;49.50;;;;;;4814172;29;20507;-75
2022/08/08 08:18:47;;;;;;;3.78;2.10;;;26.70;49.10;;;;;;4797512;29;20497;-75
2022/08/08 08:21:15;;;;;;;3.83;1.85;;;26.70;49.10;;;;;;4814731;29;20042;-74
2022/08/08 08:23:42;;;;;;;3.22;2.08;;;26.60;49.20;;;;;;4813117;29;20033;-75
2022/08/08 08:26:12;;;;;;;5.00;2.10;;;26.50;49.30;;;;;;4799176;29;20391;-76
2022/08/08 08:28:40;;;;;;;8.68;2.70;;;26.30;49.40;;;;;;4798189;29;20038;-75
2022/08/08 08:31:07;;;;;;;7.15;2.22;;;26.20;49.80;;;;;;4798863;29;20035;-75
2022/08/08 08:33:36;;;;;;;12.48;3.65;;;26.00;50.10;;;;;;4797415;29;20045;-75
2022/08/08 08:36:08;;;;;;;7.30;2.25;;;25.80;50.30;;;;;;4784323;29;20031;-75
2022/08/08 08:38:35;;;;;;;6.90;2.45;;;25.60;50.60;;;;;;4813438;29;20050;-75
2022/08/08 08:41:11;;;;;;;4.10;2.28;;;25.40;50.90;;;;;;4813999;29;20045;-75
2022/08/08 08:43:41;;;;;;;3.78;1.73;;;25.20;51.20;;;;;;4814287;29;20038;-75
2022/08/08 08:46:11;;;;;;;3.88;2.00;;;25.10;51.50;;;;;;4798737;29;20036;-76
2022/08/08 08:48:41;;;;;;;7.78;3.13;;;25.00;51.80;;;;;;4813559;29;20420;-75
2022/08/08 08:51:12;;;;;;;3.70;2.05;;;24.90;51.90;;;;;;4797483;29;20041;-75
2022/08/08 08:53:51;;;;;;;4.78;2.30;;;24.80;52.00;;;;;;4810363;29;20038;-75
2022/08/08 08:56:24;;;;;;;6.75;2.22;;;24.70;52.00;;;;;;4809887;29;20041;-75
2022/08/08 08:58:52;;;;;;;6.22;2.22;;;24.60;52.00;;;;;;4798372;29;20046;-75
2022/08/08 09:01:29;;;;;;;5.82;2.30;;;24.60;52.10;;;;;;4797172;29;20030;-74
2022/08/08 09:04:00;;;;;;;6.97;2.25;;;24.60;52.30;;;;;;4811611;29;20057;-76
2022/08/08 09:06:37;;;;;;;7.63;2.10;;;24.60;52.30;;;;;;4797694;29;20040;-75
2022/08/08 09:09:15;;;;;;;5.68;2.75;;;24.60;52.20;;;;;;4783603;29;20027;-75
2022/08/08 09:11:45;;;;;;;4.57;2.40;;;24.70;52.40;;;;;;4804953;29;20308;-75
2022/08/08 09:14:13;;;;;;;5.70;2.90;;;24.80;52.40;;;;;;4797177;29;20046;-75
2022/08/08 09:16:39;;;;;;;6.32;2.58;;;24.80;52.30;;;;;;4812797;29;20782;-75
2022/08/08 09:19:06;;;;;;;6.10;2.40;;;24.80;52.20;;;;;;4798384;29;20476;-75
2022/08/08 09:21:33;;;;;;;7.75;2.45;;;24.90;52.40;;;;;;4812891;29;20034;-74
2022/08/08 09:24:01;;;;;;;5.80;2.42;;;25.00;52.50;;;;;;4798504;29;20497;-75
2022/08/08 09:26:41;;;;;;;5.13;2.13;;;25.00;52.40;;;;;;4798610;29;20038;-75
2022/08/08 09:29:20;;;;;;;7.88;2.70;;;25.10;52.40;;;;;;4808409;29;20030;-75
2022/08/08 09:32:04;;;;;;;5.10;2.40;;;25.10;52.30;;;;;;4797130;29;20042;-75
2022/08/08 09:34:38;;;;;;;4.03;2.20;;;25.20;52.30;;;;;;4812846;29;20046;-75
2022/08/08 09:37:09;;;;;;;5.57;2.20;;;25.30;52.10;;;;;;4797420;29;20102;-75
2022/08/08 09:39:47;;;;;;;7.10;3.20;;;25.40;52.10;;;;;;4814940;29;20023;-74
2022/08/08 09:42:15;;;;;;;4.82;2.00;;;25.50;52.00;;;;;;4782884;29;20043;-75
2022/08/08 09:45:11;;;;;;;6.30;1.92;;;25.50;51.90;;;;;;4812981;29;20035;-75
2022/08/08 09:47:40;;;;;;;6.20;2.00;;;25.60;51.80;;;;;;4812674;29;20073;-75
2022/08/08 09:50:11;;;;;;;6.13;2.10;;;25.60;51.70;;;;;;4814317;29;20042;-75
2022/08/08 09:52:41;;;;;;;2.90;2.13;;;25.70;51.60;;;;;;4817214;29;20054;-76
2022/08/08 09:55:08;;;;;;;5.40;2.17;;;25.80;51.60;;;;;;4820189;29;20027;-74
2022/08/08 09:57:36;;;;;;;4.82;2.47;;;25.90;51.50;;;;;;4820332;29;20402;-76
2022/08/08 10:00:13;;;;;;;5.75;2.13;;;25.90;51.30;;;;;;4820777;29;20034;-74
2022/08/08 10:02:44;;;;;;;12.18;2.53;;;26.00;51.20;;;;;;4825936;29;20102;-73
2022/08/08 10:05:23;;;;;;;7.63;2.22;;;26.00;51.10;;;;;;4827823;29;20121;-74
2022/08/08 10:07:51;;;;;;;6.93;2.35;;;26.10;51.00;;;;;;4825458;29;20187;-76
2022/08/08 10:10:31;;;;;;;3.85;1.83;;;26.20;50.90;;;;;;4821126;29;20032;-76
2022/08/08 10:12:59;;;;;;;4.50;1.90;;;26.30;50.80;;;;;;4796971;29;20137;-77
2022/08/08 10:15:34;;;;;;;5.45;2.53;;;26.40;50.80;;;;;;4813082;29;20110;-76
2022/08/08 10:18:01;;;;;;;6.50;2.40;;;26.40;50.50;;;;;;4813445;29;20038;-75
2022/08/08 10:20:28;;;;;;;4.30;2.60;;;26.50;50.40;;;;;;4814677;29;20816;-75
2022/08/08 10:23:03;;;;;;;5.50;2.00;;;26.50;50.20;;;;;;4814219;29;20465;-73
2022/08/08 10:25:29;;;;;;;6.55;1.80;;;26.50;50.00;;;;;;4813856;29;20295;-76
2022/08/08 10:28:05;;;;;;;2.83;1.90;;;26.60;49.90;;;;;;4813659;29;20037;-76
2022/08/08 10:30:33;;;;;;;6.43;2.15;;;26.60;49.70;;;;;;4814276;29;20121;-74
2022/08/08 10:33:00;;;;;;;4.90;1.90;;;26.70;49.60;;;;;;4814096;29;20025;-74
2022/08/08 10:35:31;;;;;;;4.30;2.28;;;26.80;49.50;;;;;;4797322;29;20413;-76
2022/08/08 10:38:00;;;;;;;7.20;2.58;;;26.80;49.30;;;;;;4813951;29;20110;-76
2022/08/08 10:40:28;;;;;;;3.47;1.90;;;26.90;49.30;;;;;;4813364;29;20148;-76
2022/08/08 10:43:03;;;;;;;4.20;2.13;;;27.00;49.20;;;;;;4813759;29;20023;-74
2022/08/08 10:45:41;;;;;;;3.05;1.65;;;27.00;49.00;;;;;;4814464;29;20034;-76
2022/08/08 10:48:09;;;;;;;6.07;1.90;;;27.10;48.90;;;;;;4813933;29;20038;-76
2022/08/08 10:50:37;;;;;;;5.30;1.63;;;27.20;48.90;;;;;;4813848;29;20034;-76
2022/08/08 10:53:06;;;;;;;4.50;1.95;;;27.30;48.80;;;;;;4813514;29;20038;-76
2022/08/08 10:55:32;;;;;;;11.52;2.78;;;27.40;48.60;;;;;;4813539;29;20032;-76
2022/08/08 10:58:01;;;;;;;5.30;3.13;;;27.50;48.50;;;;;;4798560;29;20436;-76
2022/08/08 11:00:27;;;;;;;4.35;1.80;;;27.50;48.30;;;;;;4816579;29;20323;-76
2022/08/08 11:02:54;;;;;;;9.35;2.10;;;27.60;48.10;;;;;;4815483;29;20042;-76
2022/08/08 11:05:20;;;;;;;5.30;2.10;;;27.70;48.00;;;;;;4817554;29;20066;-76
2022/08/08 11:07:51;;;;;;;5.72;2.92;;;27.80;47.90;;;;;;4816160;29;20032;-76
2022/08/08 11:10:20;;;;;;;6.32;2.67;;;27.80;47.60;;;;;;4816852;29;20334;-76
2022/08/08 11:12:48;;;;;;;6.70;2.72;;;27.90;47.60;;;;;;4799079;29;20684;-77
2022/08/08 11:15:19;;;;;;;8.30;2.22;;;27.90;47.50;;;;;;4816079;29;20030;-76
2022/08/08 11:17:46;;;;;;;7.45;2.58;;;28.00;47.50;;;;;;4815989;29;20027;-76
2022/08/08 11:20:17;;;;;;;3.90;2.03;;;28.00;47.40;;;;;;4800257;29;20099;-76
2022/08/08 11:22:59;;;;;;;7.10;3.33;;;28.10;47.30;;;;;;4814852;29;20038;-76
2022/08/08 11:25:27;;;;;;;8.13;2.40;;;28.20;47.10;;;;;;4817135;29;20038;-76
2022/08/08 11:27:56;;;;;;;5.68;2.17;;;28.30;46.90;;;;;;4815948;29;20520;-76
2022/08/08 11:30:24;;;;;;;6.30;2.20;;;28.40;46.70;;;;;;4816753;29;20125;-76
2022/08/08 11:32:53;;;;;;;5.25;2.35;;;28.50;46.60;;;;;;4813873;29;20049;-76
2022/08/08 11:35:21;;;;;;;11.98;3.38;;;28.50;46.40;;;;;;4817144;29;20435;-77
2022/08/08 11:37:47;;;;;;;6.00;2.00;;;28.60;46.20;;;;;;4816441;29;20046;-76
2022/08/08 11:40:16;;;;;;;3.97;2.20;;;28.60;46.00;;;;;;4816313;29;20026;-76
2022/08/08 11:42:42;;;;;;;2.55;2.17;;;28.70;45.90;;;;;;4799721;29;20037;-78
2022/08/08 11:45:10;;;;;;;3.47;1.63;;;28.80;45.80;;;;;;4815537;29;20035;-77
2022/08/08 11:47:38;;;;;;;5.25;2.10;;;28.80;45.60;;;;;;4815178;29;20405;-76
2022/08/08 11:50:05;;;;;;;5.95;2.35;;;28.90;45.40;;;;;;4816231;29;20026;-77
2022/08/08 11:52:32;;;;;;;7.97;2.42;;;29.00;45.30;;;;;;4815593;29;20038;-76
2022/08/08 11:54:58;;;;;;;4.65;1.80;;;29.00;45.10;;;;;;4815595;29;20050;-76
2022/08/08 11:57:28;;;;;;;6.07;2.25;;;29.10;44.90;;;;;;4784159;29;20413;-75
2022/08/08 12:00:04;;;;;;;3.38;2.35;;;29.20;44.70;;;;;;4815559;29;20034;-76
2022/08/08 12:02:54;;;;;;;3.63;1.63;;;29.20;44.60;;;;;;4814348;29;20034;-76
2022/08/08 12:05:34;;;;;;;4.88;1.85;;;29.30;44.60;;;;;;4815235;29;20554;-76
2022/08/08 12:08:01;;;;;;;3.78;2.25;;;29.30;44.40;;;;;;4815252;29;20357;-76
2022/08/08 12:10:29;;;;;;;3.92;1.83;;;29.40;44.50;;;;;;4815157;29;20034;-76
2022/08/08 12:13:06;;;;;;;4.82;1.73;;;29.50;44.30;;;;;;4798244;29;20046;-77
2022/08/08 12:15:46;;;;;;;4.35;1.90;;;29.50;43.90;;;;;;4813267;29;20034;-76
2022/08/08 12:18:12;;;;;;;4.25;1.90;;;29.60;43.80;;;;;;4814573;29;20026;-78
2022/08/08 12:20:39;;;;;;;4.72;1.60;;;29.70;43.70;;;;;;4816014;29;20026;-76
2022/08/08 12:23:05;;;;;;;4.82;1.83;;;29.70;43.60;;;;;;4815886;29;20077;-76
2022/08/08 12:25:33;;;;;;;5.63;2.05;;;29.80;43.50;;;;;;4815461;29;20033;-76
2022/08/08 12:28:13;;;;;;;3.78;1.60;;;29.80;43.20;;;;;;4813399;29;20048;-76
2022/08/08 12:30:40;;;;;;;5.72;2.10;;;29.90;42.90;;;;;;4816133;29;20208;-76
2022/08/08 12:33:25;;;;;;;4.28;2.65;;;29.90;42.90;;;;;;4813854;29;20046;-76
2022/08/08 12:35:52;;;;;;;4.47;1.85;;;30.00;42.60;;;;;;4813040;29;20493;-76
2022/08/08 12:38:19;;;;;;;2.35;1.60;;;30.00;42.60;;;;;;4813564;29;20556;-76
2022/08/08 12:40:47;;;;;;;6.18;2.38;;;30.10;42.50;;;;;;4814686;29;20035;-76
2022/08/08 12:43:14;;;;;;;3.83;1.50;;;30.10;42.30;;;;;;4815051;29;20102;-77
2022/08/08 12:45:42;;;;;;;5.50;2.58;;;30.20;42.20;;;;;;4815469;29;20444;-77
2022/08/08 12:48:22;;;;;;;7.20;2.45;;;30.30;42.20;;;;;;4799322;29;20038;-77
2022/08/08 12:50:54;;;;;;;4.18;2.08;;;30.30;41.80;;;;;;4813174;29;20519;-76
2022/08/08 12:53:24;;;;;;;5.85;2.67;;;30.50;41.90;;;;;;4814352;29;20681;-77
2022/08/08 12:55:55;;;;;;;4.20;1.77;;;30.50;41.50;;;;;;4815002;29;20033;-77
2022/08/08 12:58:25;;;;;;;4.85;1.70;;;30.60;41.40;;;;;;4814027;29;20038;-77
2022/08/08 13:00:52;;;;;;;2.15;1.70;;;30.70;41.30;;;;;;4814963;29;20038;-77
2022/08/08 13:03:31;;;;;;;6.82;1.80;;;30.90;41.10;;;;;;4812406;29;20090;-77
2022/08/08 13:06:03;;;;;;;3.03;2.05;;;30.90;40.70;;;;;;4815301;29;20442;-76
2022/08/08 13:08:41;;;;;;;4.17;2.23;;;31.10;40.70;;;;;;4812630;29;20030;-76
2022/08/08 13:11:26;;;;;;;3.30;1.48;;;31.20;40.50;;;;;;4813727;29;20102;-77
2022/08/08 13:14:14;;;;;;;2.75;1.38;;;31.40;40.30;;;;;;4813542;29;20054;-76
2022/08/08 13:16:41;;;;;;;4.50;1.85;;;31.50;40.20;;;;;;4813421;29;20042;-77
2022/08/08 13:19:08;;;;;;;3.35;1.73;;;31.70;40.10;;;;;;4797589;29;20038;-77
2022/08/08 13:21:45;;;;;;;3.65;1.40;;;31.80;39.80;;;;;;4813751;29;20034;-77
2022/08/08 13:24:12;;;;;;;5.40;2.13;;;31.90;39.30;;;;;;4814054;29;20083;-76
2022/08/08 13:26:38;;;;;;;3.50;1.58;;;32.00;39.30;;;;;;4813546;29;20629;-76
2022/08/08 13:29:13;;;;;;;4.13;1.42;;;32.10;38.90;;;;;;4814247;29;20138;-76
2022/08/08 13:31:49;;;;;;;4.30;1.55;;;32.20;38.60;;;;;;4814105;29;20508;-76
2022/08/08 13:34:23;;;;;;;1.88;1.55;;;32.30;38.30;;;;;;4812984;29;20042;-76
2022/08/08 13:36:53;;;;;;;3.42;1.63;;;32.50;38.10;;;;;;4813690;29;20049;-76